Current Conditions
Clear
Conditions



Pressure
1017.92 (mb) - 30.06 (inHG)
Visibility

10.0 (km) - 6.2 (miles)
   Temperature
21  °C
70°F
8  °C
Dewpoint
43  %
 Humidity
   Wind Speed
10  km/h
5  kts
6  mph
2.7  m/s
   Wind Direction
 350°
Due North
   Airport Data
LELN
Location Leon Airport 15 km (9.32 mi)
Metar :LELN 070030Z AUTO 35005KT CAVOK 21/08 Q1018
Fri 7th August 02:30 am
   Raw Metar Info
Raw METAR is the most common format in the world for the transmission of observational weather data. It is highly standardized through the International Civil Aviation Organization (ICAO), which allows it to be understood throughout most of the world.
   API Info
Data Provided by
https://www.checkwx.com/weather/LELN
   © Info
CSS/SVG/PHP scripts were developed by weather34.com for use in the weather34 template © 2015-2020

Guide Info provided by Metar-Wikipedia